Gaz Venture — 3FLQ4 — position and weather

sailwx.info

Track history (hours):
 
Tides and Currents Weather Stations Pressure Air Temp Water Temp Dewpoint Dewpoint Depression Visibility Wind Speed Wind Dir Waves Ship Positions

Gaz Venture

Last reported at 2018-Apr-23 09:30 UTC. Time now 2018-Apr-23 09:49 UTC.
Position N 34°05' E 033°01'.

Length 120 m; draft 5.7 m.

Type: Ship (hazmat cat C). MMSI: 356141000.

Date/timePositionNaut miles runAvg speedWind from/ knotsBaromVisibWave heightAir tempDewpointWater temp
2018-Apr-23 09:30N 34°05' E 033°01'0 0.9
2018-Apr-23 09:00N 34°05' E 033°01'0 0.8
2018-Apr-23 08:30N 34°05' E 033°00'0 0.8
2018-Apr-23 08:00N 34°05' E 032°60'0 0.8
2018-Apr-23 07:30N 34°06' E 032°59'0 0.9
2018-Apr-23 07:00N 34°06' E 032°59'0 1.0
2018-Apr-23 06:30N 34°06' E 032°58'1 1.1
2018-Apr-23 06:00N 34°06' E 032°58'1 1.0
2018-Apr-23 05:30N 34°07' E 032°57'1 1.1
2018-Apr-23 04:54N 34°07' E 032°57'0 1.2
2018-Apr-23 04:30N 34°07' E 032°56'1 1.3
2018-Apr-23 04:00N 34°08' E 032°55'1 1.3
2018-Apr-23 03:30N 34°08' E 032°55'1 1.4
2018-Apr-23 03:00N 34°08' E 032°54'1 1.4
2018-Apr-23 02:30N 34°09' E 032°53'1 1.5
2018-Apr-23 02:00N 34°09' E 032°53'4 2.2
2018-Apr-23 00:20N 34°07' E 032°56'612.7
2018-Apr-22 23:54N 34°04' E 033°02'  
2018-Apr-20 17:25N 33°59' E 033°31'29 1.3
2018-Apr-19 18:42N 33°31' E 033°32'1 1.6
2018-Apr-19 17:51N 33°31' E 033°31'1 1.6
2018-Apr-19 17:31N 33°32' E 033°30'1 1.4
2018-Apr-19 16:56N 33°32' E 033°29'2 1.4
2018-Apr-19 15:49N 33°33' E 033°28'0 1.4
2018-Apr-19 15:31N 33°33' E 033°28'1 1.4
2018-Apr-19 15:00N 33°34' E 033°27'1 1.5
2018-Apr-19 14:30N 33°34' E 033°27'2 1.5
2018-Apr-19 13:29N 33°36' E 033°25'1 1.5
2018-Apr-19 12:59N 33°36' E 033°25'2 1.5
2018-Apr-19 11:52N 33°38' E 033°24'1 1.5
2018-Apr-19 11:21N 33°38' E 033°23'1 1.6
2018-Apr-19 11:01N 33°39' E 033°23'1 1.5
2018-Apr-19 10:27N 33°39' E 033°22'1 1.5
2018-Apr-19 10:01N 33°40' E 033°22'3 1.6
2018-Apr-19 08:10N 33°42' E 033°20'0 1.6
2018-Apr-19 07:58N 33°42' E 033°19'1 1.6
2018-Apr-19 07:11N 33°44' E 033°19'0 1.6
2018-Apr-19 06:57N 33°44' E 033°18'1 1.7
2018-Apr-19 06:30N 33°45' E 033°18'1 1.7
2018-Apr-19 05:59N 33°45' E 033°18'1 1.7
2018-Apr-19 05:29N 33°46' E 033°17'1 1.7
2018-Apr-19 05:00N 33°47' E 033°17'1 1.7
2018-Apr-19 04:28N 33°48' E 033°17'3 1.8
2018-Apr-19 02:38N 33°51' E 033°14'0 1.8
2018-Apr-19 02:30N 33°51' E 033°14'1 1.7
2018-Apr-19 02:00N 33°51' E 033°14'1 1.7
2018-Apr-19 01:30N 33°52' E 033°13'1 1.6
2018-Apr-19 01:00N 33°52' E 033°12'1 1.6
2018-Apr-19 00:26N 33°53' E 033°11'1 1.4
2018-Apr-19 00:00N 33°53' E 033°10'1 1.2
2018-Apr-18 23:31N 33°53' E 033°10'1 1.1
2018-Apr-18 23:00N 33°54' E 033°09'0 1.0
2018-Apr-18 22:30N 33°54' E 033°09'0 0.9
2018-Apr-18 22:00N 33°55' E 033°09'0 0.9
2018-Apr-18 21:30N 33°55' E 033°08'0 1.0
2018-Apr-18 21:00N 33°55' E 033°08'1 1.0
2018-Apr-18 20:30N 33°56' E 033°08'0 1.0
2018-Apr-18 20:01N 33°56' E 033°07'0 0.9
2018-Apr-18 19:30N 33°57' E 033°07'1 1.0
2018-Apr-18 18:59N 33°57' E 033°07'1 1.1
2018-Apr-18 18:30N 33°57' E 033°06'1 1.1
2018-Apr-18 18:00N 33°58' E 033°06'1 1.2
2018-Apr-18 17:28N 33°59' E 033°06'1 1.1
2018-Apr-18 16:56N 33°59' E 033°05'0 1.1
2018-Apr-18 16:30N 33°59' E 033°05'1 1.1
2018-Apr-18 15:51N 33°60' E 033°04'0 1.1
2018-Apr-18 15:30N 34°00' E 033°04'1 1.0
2018-Apr-18 14:48N 34°01' E 033°03'0 0.8
2018-Apr-18 14:30N 34°01' E 033°03'0 0.7
2018-Apr-18 14:00N 34°01' E 033°03'0 0.7
2018-Apr-18 13:29N 34°01' E 033°03'1 0.5
2018-Apr-18 12:21N 34°02' E 033°02'0 0.4
2018-Apr-18 11:59N 34°02' E 033°02'0 0.4
2018-Apr-18 11:30N 34°02' E 033°02'0 0.3
2018-Apr-18 10:56N 34°02' E 033°02'0 0.2
2018-Apr-18 10:09N 34°02' E 033°02'0 0.3
2018-Apr-18 10:00N 34°02' E 033°02'0 0.3
2018-Apr-18 09:30N 34°02' E 033°02'2 0.3
2018-Apr-18 04:25N 34°04' E 033°02'0 0.4
2018-Apr-18 03:18N 34°04' E 033°02'0 0.5
2018-Apr-18 03:00N 34°04' E 033°02'0 0.4
2018-Apr-18 02:30N 34°05' E 033°02'0 0.5
2018-Apr-18 01:59N 34°05' E 033°02'1 0.4
2018-Apr-17 21:48N 34°06' E 033°01'0 0.6
2018-Apr-17 21:30N 34°06' E 033°01'0 0.7
2018-Apr-17 21:00N 34°07' E 033°01'0 0.7
2018-Apr-17 20:30N 34°07' E 033°00'0 0.7
2018-Apr-17 20:00N 34°07' E 033°00'1 0.7
2018-Apr-17 18:40N 34°08' E 032°60'1 0.5
2018-Apr-17 17:25N 34°08' E 032°59'1 3.1
2018-Apr-17 16:57N 34°07' E 032°59'2 3.7
2018-Apr-17 16:28N 34°09' E 032°59'0 0.5
2018-Apr-17 15:56N 34°09' E 032°59'0 0.4
2018-Apr-17 15:30N 34°09' E 032°58'0 0.6
2018-Apr-17 15:00N 34°09' E 032°58'0 0.7
2018-Apr-17 14:30N 34°09' E 032°58'0 0.5
2018-Apr-17 13:59N 34°09' E 032°57'0 0.4
2018-Apr-17 13:29N 34°09' E 032°57'0 0.3
2018-Apr-17 12:56N 34°09' E 032°57'0 0.3
2018-Apr-17 12:24N 34°09' E 032°57'0 0.3
2018-Apr-17 11:55N 34°09' E 032°57'0 0.3
2018-Apr-17 11:30N 34°09' E 032°56'0 0.3
2018-Apr-17 11:00N 34°09' E 032°56'0 0.7
2018-Apr-17 10:30N 34°09' E 032°56'0 0.8
2018-Apr-17 09:59N 34°09' E 032°57'0 0.2
2018-Apr-17 09:30N 34°09' E 032°57'0 0.2
2018-Apr-17 09:00N 34°09' E 032°57'0 0.1
2018-Apr-17 08:30N 34°09' E 032°57'0 0.2
2018-Apr-17 08:00N 34°09' E 032°57'0 0.2
2018-Apr-17 07:29N 34°09' E 032°56'0 0.1
2018-Apr-17 06:59N 34°09' E 032°56'0 0.2
2018-Apr-17 05:03N 34°09' E 032°56'0 0.2
2018-Apr-17 05:00N 34°09' E 032°56'0 0.1
2018-Apr-17 04:30N 34°09' E 032°56'0 0.2
2018-Apr-17 04:00N 34°08' E 032°56'0 0.3
2018-Apr-17 03:30N 34°08' E 032°56'3 0.4
2018-Apr-16 21:12N 34°11' E 032°58'0 0.6
2018-Apr-16 21:00N 34°11' E 032°58'0 0.6
2018-Apr-16 20:31N 34°11' E 032°58'0 0.6
2018-Apr-16 20:01N 34°11' E 032°58'0 0.7
2018-Apr-16 19:30N 34°11' E 032°57'0 0.7
2018-Apr-16 19:00N 34°12' E 032°57'0 0.7
2018-Apr-16 18:30N 34°12' E 032°56'0 0.7
2018-Apr-16 18:00N 34°12' E 032°56'0 0.7
2018-Apr-16 17:30N 34°12' E 032°56'0 0.7
2018-Apr-16 17:00N 34°12' E 032°55'0 0.6
2018-Apr-16 16:30N 34°12' E 032°55'0 0.5
2018-Apr-16 16:01N 34°12' E 032°55'0 0.4
2018-Apr-16 15:29N 34°12' E 032°54'0 0.5
2018-Apr-16 15:00N 34°11' E 032°54'0 0.6
2018-Apr-16 14:30N 34°11' E 032°54'0 0.5
2018-Apr-16 13:58N 34°11' E 032°54'0 0.7
2018-Apr-16 13:17N 34°11' E 032°54'0 0.9
2018-Apr-16 13:00N 34°10' E 032°54'610.4
2018-Apr-16 12:24N 34°16' E 032°59'1313.3
2018-Apr-16 11:25N 34°27' E 033°06'512.7
2018-Apr-16 11:00N 34°33' E 033°06'612.1
2018-Apr-16 10:30N 34°39' E 033°05'1 0.9
2018-Apr-16 08:59N 34°40' E 033°05'0 0.0
2018-Apr-16 06:44N 34°40' E 033°05'0 0.0
2018-Apr-16 04:44N 34°40' E 033°05'0 0.1
2018-Apr-16 04:29N 34°40' E 033°05'0 0.0
2018-Apr-16 03:59N 34°40' E 033°05'0 0.0
2018-Apr-16 03:29N 34°40' E 033°05'0 0.0
2018-Apr-16 02:59N 34°40' E 033°05'0 0.0
2018-Apr-16 02:29N 34°40' E 033°05'0 0.0
2018-Apr-15 21:53N 34°40' E 033°05'0 0.1
2018-Apr-15 21:23N 34°40' E 033°05'0 0.1
2018-Apr-15 20:59N 34°40' E 033°05'0 0.1
2018-Apr-15 20:29N 34°40' E 033°05'0 0.0
2018-Apr-15 19:32N 34°40' E 033°05'0 0.3
2018-Apr-15 19:30N 34°40' E 033°05'0 0.0
2018-Apr-15 18:58N 34°40' E 033°05'0 0.0
2018-Apr-15 18:31N 34°40' E 033°05'0 0.0
2018-Apr-15 18:00N 34°40' E 033°05'0 0.0
2018-Apr-15 17:30N 34°40' E 033°05'0 0.1
2018-Apr-15 16:55N 34°40' E 033°05'0 0.0
2018-Apr-15 16:28N 34°40' E 033°05'0 0.0
2018-Apr-15 15:58N 34°40' E 033°05'0 0.0
2018-Apr-15 15:19N 34°40' E 033°05'0 0.0
2018-Apr-15 14:58N 34°40' E 033°05'0 0.0
2018-Apr-15 14:28N 34°40' E 033°05'0 0.0
2018-Apr-15 13:55N 34°40' E 033°05'0 0.0
2018-Apr-15 13:25N 34°40' E 033°05'0 0.0
2018-Apr-15 12:58N 34°40' E 033°05'0 0.0
2018-Apr-14 22:21N 34°40' E 033°05'0 0.0
2018-Apr-14 21:54N 34°40' E 033°05'0 0.1
2018-Apr-14 21:27N 34°40' E 033°05'0 0.1
2018-Apr-14 21:00N 34°40' E 033°05'0 0.1
2018-Apr-14 20:29N 34°40' E 033°05'0 0.1
2018-Apr-14 19:59N 34°40' E 033°05'0 0.0
2018-Apr-14 19:26N 34°40' E 033°05'0 0.0
2018-Apr-14 18:59N 34°40' E 033°05'0 0.0
2018-Apr-14 18:29N 34°40' E 033°05'0 0.0
2018-Apr-14 17:59N 34°40' E 033°05'0 0.0
2018-Apr-14 17:26N 34°40' E 033°05'0 0.0
2018-Apr-14 16:55N 34°40' E 033°05'0 0.0
2018-Apr-14 16:25N 34°40' E 033°05'0 0.0
2018-Apr-14 15:55N 34°40' E 033°05'0 0.0
2018-Apr-14 15:25N 34°40' E 033°05'0 0.0
2018-Apr-14 14:57N 34°40' E 033°05'0 0.0
2018-Apr-14 14:25N 34°40' E 033°05'0 0.0
2018-Apr-14 13:59N 34°40' E 033°05'0 0.0
2018-Apr-14 13:29N 34°40' E 033°05'0 0.0
2018-Apr-14 12:40N 34°40' E 033°05'0 0.0
2018-Apr-14 11:25N 34°40' E 033°05'0 0.0
2018-Apr-14 10:49N 34°40' E 033°05'0 0.0
2018-Apr-14 10:22N 34°40' E 033°05'0 0.1
2018-Apr-14 09:56N 34°40' E 033°05'0 0.0
2018-Apr-14 09:02N 34°40' E 033°05'0 0.1
2018-Apr-14 08:59N 34°40' E 033°05'0 0.0
2018-Apr-14 08:28N 34°40' E 033°05'0 0.0
2018-Apr-14 07:55N 34°40' E 033°05'0 0.0
2018-Apr-14 07:28N 34°40' E 033°05'0 0.0
2018-Apr-14 06:58N 34°40' E 033°05'0 0.0
2018-Apr-14 06:28N 34°40' E 033°05'0 0.0
2018-Apr-14 05:58N 34°40' E 033°05'0 0.0
2018-Apr-14 05:28N 34°40' E 033°05'0 0.0
2018-Apr-14 04:37N 34°40' E 033°05'0 0.0
2018-Apr-14 04:26N 34°40' E 033°05'0 0.0
2018-Apr-14 03:56N 34°40' E 033°05'0 0.0
2018-Apr-14 03:28N 34°40' E 033°05'0 0.0
2018-Apr-14 02:58N 34°40' E 033°05'0 0.1
2018-Apr-14 02:27N 34°40' E 033°05'0 0.1
2018-Apr-14 01:41N 34°40' E 033°05'0 0.0
2018-Apr-13 21:03N 34°40' E 033°05'0 0.1
2018-Apr-13 19:37N 34°40' E 033°05'0 0.3
2018-Apr-13 19:28N 34°40' E 033°05'2010.2
2018-Apr-13 17:28N 34°35' E 033°29'2214.2
2018-Apr-13 15:55N 34°34' E 033°56'3314.6
2018-Apr-13 13:37N 34°33' E 034°37'214.9
2018-Apr-13 13:30N 34°33' E 034°39'3014.9
2018-Apr-13 11:30N 34°32' E 035°15'  
Track history (hours):
 
Tides and Currents Weather Stations Pressure Air Temp Water Temp Dewpoint Dewpoint Depression Visibility Wind Speed Wind Dir Waves Ship Positions

Gaz Venture

Last reported at 2018-Apr-23 09:30 UTC. Time now 2018-Apr-23 09:49 UTC.
Position N 34°05' E 033°01'.

Length 120 m; draft 5.7 m.

Type: Ship (hazmat cat C). MMSI: 356141000.

Date/timePositionNaut miles runAvg speedWind from/ knotsBaromVisibWave heightAir tempDewpointWater temp
2018-Apr-23 09:30N 34°05' E 033°01'0 0.9
2018-Apr-23 09:00N 34°05' E 033°01'0 0.8
2018-Apr-23 08:30N 34°05' E 033°00'0 0.8
2018-Apr-23 08:00N 34°05' E 032°60'0 0.8
2018-Apr-23 07:30N 34°06' E 032°59'0 0.9
2018-Apr-23 07:00N 34°06' E 032°59'0 1.0
2018-Apr-23 06:30N 34°06' E 032°58'1 1.1
2018-Apr-23 06:00N 34°06' E 032°58'1 1.0
2018-Apr-23 05:30N 34°07' E 032°57'1 1.1
2018-Apr-23 04:54N 34°07' E 032°57'0 1.2
2018-Apr-23 04:30N 34°07' E 032°56'1 1.3
2018-Apr-23 04:00N 34°08' E 032°55'1 1.3
2018-Apr-23 03:30N 34°08' E 032°55'1 1.4
2018-Apr-23 03:00N 34°08' E 032°54'1 1.4
2018-Apr-23 02:30N 34°09' E 032°53'1 1.5
2018-Apr-23 02:00N 34°09' E 032°53'4 2.2
2018-Apr-23 00:20N 34°07' E 032°56'612.7
2018-Apr-22 23:54N 34°04' E 033°02'  
2018-Apr-20 17:25N 33°59' E 033°31'29 1.3
2018-Apr-19 18:42N 33°31' E 033°32'1 1.6
2018-Apr-19 17:51N 33°31' E 033°31'1 1.6
2018-Apr-19 17:31N 33°32' E 033°30'1 1.4
2018-Apr-19 16:56N 33°32' E 033°29'2 1.4
2018-Apr-19 15:49N 33°33' E 033°28'0 1.4
2018-Apr-19 15:31N 33°33' E 033°28'1 1.4
2018-Apr-19 15:00N 33°34' E 033°27'1 1.5
2018-Apr-19 14:30N 33°34' E 033°27'2 1.5
2018-Apr-19 13:29N 33°36' E 033°25'1 1.5
2018-Apr-19 12:59N 33°36' E 033°25'2 1.5
2018-Apr-19 11:52N 33°38' E 033°24'1 1.5
2018-Apr-19 11:21N 33°38' E 033°23'1 1.6
2018-Apr-19 11:01N 33°39' E 033°23'1 1.5
2018-Apr-19 10:27N 33°39' E 033°22'1 1.5
2018-Apr-19 10:01N 33°40' E 033°22'3 1.6
2018-Apr-19 08:10N 33°42' E 033°20'0 1.6
2018-Apr-19 07:58N 33°42' E 033°19'1 1.6
2018-Apr-19 07:11N 33°44' E 033°19'0 1.6
2018-Apr-19 06:57N 33°44' E 033°18'1 1.7
2018-Apr-19 06:30N 33°45' E 033°18'1 1.7
2018-Apr-19 05:59N 33°45' E 033°18'1 1.7
2018-Apr-19 05:29N 33°46' E 033°17'1 1.7
2018-Apr-19 05:00N 33°47' E 033°17'1 1.7
2018-Apr-19 04:28N 33°48' E 033°17'3 1.8
2018-Apr-19 02:38N 33°51' E 033°14'0 1.8
2018-Apr-19 02:30N 33°51' E 033°14'1 1.7
2018-Apr-19 02:00N 33°51' E 033°14'1 1.7
2018-Apr-19 01:30N 33°52' E 033°13'1 1.6
2018-Apr-19 01:00N 33°52' E 033°12'1 1.6
2018-Apr-19 00:26N 33°53' E 033°11'1 1.4
2018-Apr-19 00:00N 33°53' E 033°10'1 1.2
2018-Apr-18 23:31N 33°53' E 033°10'1 1.1
2018-Apr-18 23:00N 33°54' E 033°09'0 1.0
2018-Apr-18 22:30N 33°54' E 033°09'0 0.9
2018-Apr-18 22:00N 33°55' E 033°09'0 0.9
2018-Apr-18 21:30N 33°55' E 033°08'0 1.0
2018-Apr-18 21:00N 33°55' E 033°08'1 1.0
2018-Apr-18 20:30N 33°56' E 033°08'0 1.0
2018-Apr-18 20:01N 33°56' E 033°07'0 0.9
2018-Apr-18 19:30N 33°57' E 033°07'1 1.0
2018-Apr-18 18:59N 33°57' E 033°07'1 1.1
2018-Apr-18 18:30N 33°57' E 033°06'1 1.1
2018-Apr-18 18:00N 33°58' E 033°06'1 1.2
2018-Apr-18 17:28N 33°59' E 033°06'1 1.1
2018-Apr-18 16:56N 33°59' E 033°05'0 1.1
2018-Apr-18 16:30N 33°59' E 033°05'1 1.1
2018-Apr-18 15:51N 33°60' E 033°04'0 1.1
2018-Apr-18 15:30N 34°00' E 033°04'1 1.0
2018-Apr-18 14:48N 34°01' E 033°03'0 0.8
2018-Apr-18 14:30N 34°01' E 033°03'0 0.7
2018-Apr-18 14:00N 34°01' E 033°03'0 0.7
2018-Apr-18 13:29N 34°01' E 033°03'1 0.5
2018-Apr-18 12:21N 34°02' E 033°02'0 0.4
2018-Apr-18 11:59N 34°02' E 033°02'0 0.4
2018-Apr-18 11:30N 34°02' E 033°02'0 0.3
2018-Apr-18 10:56N 34°02' E 033°02'0 0.2
2018-Apr-18 10:09N 34°02' E 033°02'0 0.3
2018-Apr-18 10:00N 34°02' E 033°02'0 0.3
2018-Apr-18 09:30N 34°02' E 033°02'2 0.3
2018-Apr-18 04:25N 34°04' E 033°02'0 0.4
2018-Apr-18 03:18N 34°04' E 033°02'0 0.5
2018-Apr-18 03:00N 34°04' E 033°02'0 0.4
2018-Apr-18 02:30N 34°05' E 033°02'0 0.5
2018-Apr-18 01:59N 34°05' E 033°02'1 0.4
2018-Apr-17 21:48N 34°06' E 033°01'0 0.6
2018-Apr-17 21:30N 34°06' E 033°01'0 0.7
2018-Apr-17 21:00N 34°07' E 033°01'0 0.7
2018-Apr-17 20:30N 34°07' E 033°00'0 0.7
2018-Apr-17 20:00N 34°07' E 033°00'1 0.7
2018-Apr-17 18:40N 34°08' E 032°60'1 0.5
2018-Apr-17 17:25N 34°08' E 032°59'1 3.1
2018-Apr-17 16:57N 34°07' E 032°59'2 3.7
2018-Apr-17 16:28N 34°09' E 032°59'0 0.5
2018-Apr-17 15:56N 34°09' E 032°59'0 0.4
2018-Apr-17 15:30N 34°09' E 032°58'0 0.6
2018-Apr-17 15:00N 34°09' E 032°58'0 0.7
2018-Apr-17 14:30N 34°09' E 032°58'0 0.5
2018-Apr-17 13:59N 34°09' E 032°57'0 0.4
2018-Apr-17 13:29N 34°09' E 032°57'0 0.3
2018-Apr-17 12:56N 34°09' E 032°57'0 0.3
2018-Apr-17 12:24N 34°09' E 032°57'0 0.3
2018-Apr-17 11:55N 34°09' E 032°57'0 0.3
2018-Apr-17 11:30N 34°09' E 032°56'0 0.3
2018-Apr-17 11:00N 34°09' E 032°56'0 0.7
2018-Apr-17 10:30N 34°09' E 032°56'0 0.8
2018-Apr-17 09:59N 34°09' E 032°57'0 0.2
2018-Apr-17 09:30N 34°09' E 032°57'0 0.2
2018-Apr-17 09:00N 34°09' E 032°57'0 0.1
2018-Apr-17 08:30N 34°09' E 032°57'0 0.2
2018-Apr-17 08:00N 34°09' E 032°57'0 0.2
2018-Apr-17 07:29N 34°09' E 032°56'0 0.1
2018-Apr-17 06:59N 34°09' E 032°56'0 0.2
2018-Apr-17 05:03N 34°09' E 032°56'0 0.2
2018-Apr-17 05:00N 34°09' E 032°56'0 0.1
2018-Apr-17 04:30N 34°09' E 032°56'0 0.2
2018-Apr-17 04:00N 34°08' E 032°56'0 0.3
2018-Apr-17 03:30N 34°08' E 032°56'3 0.4
2018-Apr-16 21:12N 34°11' E 032°58'0 0.6
2018-Apr-16 21:00N 34°11' E 032°58'0 0.6
2018-Apr-16 20:31N 34°11' E 032°58'0 0.6
2018-Apr-16 20:01N 34°11' E 032°58'0 0.7
2018-Apr-16 19:30N 34°11' E 032°57'0 0.7
2018-Apr-16 19:00N 34°12' E 032°57'0 0.7
2018-Apr-16 18:30N 34°12' E 032°56'0 0.7
2018-Apr-16 18:00N 34°12' E 032°56'0 0.7
2018-Apr-16 17:30N 34°12' E 032°56'0 0.7
2018-Apr-16 17:00N 34°12' E 032°55'0 0.6
2018-Apr-16 16:30N 34°12' E 032°55'0 0.5
2018-Apr-16 16:01N 34°12' E 032°55'0 0.4
2018-Apr-16 15:29N 34°12' E 032°54'0 0.5
2018-Apr-16 15:00N 34°11' E 032°54'0 0.6
2018-Apr-16 14:30N 34°11' E 032°54'0 0.5
2018-Apr-16 13:58N 34°11' E 032°54'0 0.7
2018-Apr-16 13:17N 34°11' E 032°54'0 0.9
2018-Apr-16 13:00N 34°10' E 032°54'610.4
2018-Apr-16 12:24N 34°16' E 032°59'1313.3
2018-Apr-16 11:25N 34°27' E 033°06'512.7
2018-Apr-16 11:00N 34°33' E 033°06'612.1
2018-Apr-16 10:30N 34°39' E 033°05'1 0.9
2018-Apr-16 08:59N 34°40' E 033°05'0 0.0
2018-Apr-16 06:44N 34°40' E 033°05'0 0.0
2018-Apr-16 04:44N 34°40' E 033°05'0 0.1
2018-Apr-16 04:29N 34°40' E 033°05'0 0.0
2018-Apr-16 03:59N 34°40' E 033°05'0 0.0
2018-Apr-16 03:29N 34°40' E 033°05'0 0.0
2018-Apr-16 02:59N 34°40' E 033°05'0 0.0
2018-Apr-16 02:29N 34°40' E 033°05'0 0.0
2018-Apr-15 21:53N 34°40' E 033°05'0 0.1
2018-Apr-15 21:23N 34°40' E 033°05'0 0.1
2018-Apr-15 20:59N 34°40' E 033°05'0 0.1
2018-Apr-15 20:29N 34°40' E 033°05'0 0.0
2018-Apr-15 19:32N 34°40' E 033°05'0 0.3
2018-Apr-15 19:30N 34°40' E 033°05'0 0.0
2018-Apr-15 18:58N 34°40' E 033°05'0 0.0
2018-Apr-15 18:31N 34°40' E 033°05'0 0.0
2018-Apr-15 18:00N 34°40' E 033°05'0 0.0
2018-Apr-15 17:30N 34°40' E 033°05'0 0.1
2018-Apr-15 16:55N 34°40' E 033°05'0 0.0
2018-Apr-15 16:28N 34°40' E 033°05'0 0.0
2018-Apr-15 15:58N 34°40' E 033°05'0 0.0
2018-Apr-15 15:19N 34°40' E 033°05'0 0.0
2018-Apr-15 14:58N 34°40' E 033°05'0 0.0
2018-Apr-15 14:28N 34°40' E 033°05'0 0.0
2018-Apr-15 13:55N 34°40' E 033°05'0 0.0
2018-Apr-15 13:25N 34°40' E 033°05'0 0.0
2018-Apr-15 12:58N 34°40' E 033°05'0 0.0
2018-Apr-14 22:21N 34°40' E 033°05'0 0.0
2018-Apr-14 21:54N 34°40' E 033°05'0 0.1
2018-Apr-14 21:27N 34°40' E 033°05'0 0.1
2018-Apr-14 21:00N 34°40' E 033°05'0 0.1
2018-Apr-14 20:29N 34°40' E 033°05'0 0.1
2018-Apr-14 19:59N 34°40' E 033°05'0 0.0
2018-Apr-14 19:26N 34°40' E 033°05'0 0.0
2018-Apr-14 18:59N 34°40' E 033°05'0 0.0
2018-Apr-14 18:29N 34°40' E 033°05'0 0.0
2018-Apr-14 17:59N 34°40' E 033°05'0 0.0
2018-Apr-14 17:26N 34°40' E 033°05'0 0.0
2018-Apr-14 16:55N 34°40' E 033°05'0 0.0
2018-Apr-14 16:25N 34°40' E 033°05'0 0.0
2018-Apr-14 15:55N 34°40' E 033°05'0 0.0
2018-Apr-14 15:25N 34°40' E 033°05'0 0.0
2018-Apr-14 14:57N 34°40' E 033°05'0 0.0
2018-Apr-14 14:25N 34°40' E 033°05'0 0.0
2018-Apr-14 13:59N 34°40' E 033°05'0 0.0
2018-Apr-14 13:29N 34°40' E 033°05'0 0.0
2018-Apr-14 12:40N 34°40' E 033°05'0 0.0
2018-Apr-14 11:25N 34°40' E 033°05'0 0.0
2018-Apr-14 10:49N 34°40' E 033°05'0 0.0
2018-Apr-14 10:22N 34°40' E 033°05'0 0.1
2018-Apr-14 09:56N 34°40' E 033°05'0 0.0
2018-Apr-14 09:02N 34°40' E 033°05'0 0.1
2018-Apr-14 08:59N 34°40' E 033°05'0 0.0
2018-Apr-14 08:28N 34°40' E 033°05'0 0.0
2018-Apr-14 07:55N 34°40' E 033°05'0 0.0
2018-Apr-14 07:28N 34°40' E 033°05'0 0.0
2018-Apr-14 06:58N 34°40' E 033°05'0 0.0
2018-Apr-14 06:28N 34°40' E 033°05'0 0.0
2018-Apr-14 05:58N 34°40' E 033°05'0 0.0
2018-Apr-14 05:28N 34°40' E 033°05'0 0.0
2018-Apr-14 04:37N 34°40' E 033°05'0 0.0
2018-Apr-14 04:26N 34°40' E 033°05'0 0.0
2018-Apr-14 03:56N 34°40' E 033°05'0 0.0
2018-Apr-14 03:28N 34°40' E 033°05'0 0.0
2018-Apr-14 02:58N 34°40' E 033°05'0 0.1
2018-Apr-14 02:27N 34°40' E 033°05'0 0.1
2018-Apr-14 01:41N 34°40' E 033°05'0 0.0
2018-Apr-13 21:03N 34°40' E 033°05'0 0.1
2018-Apr-13 19:37N 34°40' E 033°05'0 0.3
2018-Apr-13 19:28N 34°40' E 033°05'2010.2
2018-Apr-13 17:28N 34°35' E 033°29'2214.2
2018-Apr-13 15:55N 34°34' E 033°56'3314.6
2018-Apr-13 13:37N 34°33' E 034°37'214.9
2018-Apr-13 13:30N 34°33' E 034°39'3014.9
2018-Apr-13 11:30N 34°32' E 035°15'  

Dump ship's entire track history